White Point — IBAE — position and weather

sailwx.info

Track history (hours):
 
Tides and Currents Weather Stations Pressure Air Temp Water Temp Dewpoint Dewpoint Depression Visibility Wind Speed Wind Dir Waves Ship Positions

White Point

Last reported at 2014-Oct-18 12:12 UTC. Time now 2014-Oct-25 05:35 UTC.
Position N 37°52' E 015°44'.

Length 183 m; draft 1.1 m.

Type: Ship (hazmat cat D). MMSI: 247087400.

Date/timePositionNaut miles runAvg speedWind from/ knotsBaromVisibWave heightAir tempDewpointWater temp
2014-Oct-18 12:12N 37°52' E 015°44'2313.8
2014-Oct-18 10:33N 38°14' E 015°37'20214.1
2014-Oct-17 20:15N 41°13' E 013°36'152 4.9
2014-Oct-16 13:26N 42°25' E 010°35'1714.2
2014-Oct-16 12:14N 42°35' E 010°16'3412.5
2014-Oct-16 09:31N 43°08' E 010°06'1313.7
2014-Oct-16 08:34N 43°21' E 010°10'1211.7
2014-Oct-16 07:33N 43°32' E 010°15'4 3.6
2014-Oct-16 06:31N 43°34' E 010°19'0 0.0
2014-Oct-16 05:31N 43°34' E 010°19'0 0.0
2014-Oct-16 04:31N 43°34' E 010°19'0 0.0
2014-Oct-16 03:31N 43°34' E 010°19'0 0.0
2014-Oct-16 02:31N 43°34' E 010°19'0 0.0
2014-Oct-16 01:31N 43°34' E 010°19'0 0.0
2014-Oct-16 00:31N 43°34' E 010°19'0 0.0
2014-Oct-15 23:28N 43°34' E 010°19'0 0.0
2014-Oct-15 22:31N 43°34' E 010°19'0 0.0
2014-Oct-15 21:31N 43°34' E 010°19'0 0.0
2014-Oct-15 20:31N 43°34' E 010°19'0 0.0
2014-Oct-15 19:31N 43°34' E 010°19'0 0.0
2014-Oct-15 18:31N 43°34' E 010°19'0 0.0
2014-Oct-15 17:11N 43°34' E 010°19'0 0.0
2014-Oct-15 14:33N 43°34' E 010°19'0 0.0
2014-Oct-15 13:33N 43°34' E 010°19'1 1.2
2014-Oct-15 12:33N 43°34' E 010°18'4 3.8
2014-Oct-15 11:33N 43°30' E 010°17'0 0.1
2014-Oct-15 10:31N 43°30' E 010°17'0 0.0
2014-Oct-15 09:28N 43°30' E 010°17'0 0.0
2014-Oct-15 08:28N 43°30' E 010°17'0 0.0
2014-Oct-15 07:31N 43°30' E 010°17'0 0.1
2014-Oct-15 06:28N 43°30' E 010°17'0 0.0
2014-Oct-15 05:31N 43°30' E 010°17'0 0.0
2014-Oct-15 04:31N 43°30' E 010°17'0 0.0
2014-Oct-15 03:31N 43°30' E 010°17'0 0.0
2014-Oct-15 02:31N 43°30' E 010°17'0 0.0
2014-Oct-15 01:31N 43°30' E 010°17'0 0.0
2014-Oct-15 00:28N 43°30' E 010°17'0 0.0
2014-Oct-14 23:31N 43°30' E 010°17'0 0.0
2014-Oct-14 22:31N 43°30' E 010°17'0 0.0
2014-Oct-14 21:31N 43°30' E 010°17'0 0.1
2014-Oct-14 20:22N 43°30' E 010°17'0 0.1
2014-Oct-14 19:31N 43°30' E 010°17'0 0.0
2014-Oct-14 18:31N 43°30' E 010°17'0 0.0
2014-Oct-14 17:31N 43°30' E 010°17'0 0.0
2014-Oct-14 16:31N 43°30' E 010°17'0 0.0
2014-Oct-14 15:31N 43°30' E 010°17'0 0.0
2014-Oct-14 14:31N 43°30' E 010°17'0 0.0
2014-Oct-14 13:31N 43°30' E 010°17'0 0.0
2014-Oct-14 12:31N 43°30' E 010°17'0 0.0
2014-Oct-14 11:31N 43°30' E 010°17'0 0.0
2014-Oct-14 10:28N 43°30' E 010°17'0 0.0
2014-Oct-14 09:31N 43°30' E 010°17'0 0.0
2014-Oct-14 08:31N 43°30' E 010°17'0 0.0
2014-Oct-14 07:31N 43°30' E 010°17'0 0.4
2014-Oct-14 06:33N 43°30' E 010°17'1312.9
2014-Oct-14 05:33N 43°18' E 010°10'1514.7
2014-Oct-14 04:33N 43°03' E 010°06'3113.4
2014-Oct-14 02:13N 42°33' E 010°16'20214.7
2014-Oct-13 12:32N 40°09' E 013°24'1414.8
2014-Oct-13 11:33N 39°59' E 013°38'1514.8
2014-Oct-13 10:31N 39°48' E 013°52'8914.8
2014-Oct-13 04:28N 38°43' E 015°11'  
Track history (hours):
 
Tides and Currents Weather Stations Pressure Air Temp Water Temp Dewpoint Dewpoint Depression Visibility Wind Speed Wind Dir Waves Ship Positions

White Point

Last reported at 2014-Oct-18 12:12 UTC. Time now 2014-Oct-25 05:35 UTC.
Position N 37°52' E 015°44'.

Length 183 m; draft 1.1 m.

Type: Ship (hazmat cat D). MMSI: 247087400.

Date/timePositionNaut miles runAvg speedWind from/ knotsBaromVisibWave heightAir tempDewpointWater temp
2014-Oct-18 12:12N 37°52' E 015°44'2313.8
2014-Oct-18 10:33N 38°14' E 015°37'20214.1
2014-Oct-17 20:15N 41°13' E 013°36'152 4.9
2014-Oct-16 13:26N 42°25' E 010°35'1714.2
2014-Oct-16 12:14N 42°35' E 010°16'3412.5
2014-Oct-16 09:31N 43°08' E 010°06'1313.7
2014-Oct-16 08:34N 43°21' E 010°10'1211.7
2014-Oct-16 07:33N 43°32' E 010°15'4 3.6
2014-Oct-16 06:31N 43°34' E 010°19'0 0.0
2014-Oct-16 05:31N 43°34' E 010°19'0 0.0
2014-Oct-16 04:31N 43°34' E 010°19'0 0.0
2014-Oct-16 03:31N 43°34' E 010°19'0 0.0
2014-Oct-16 02:31N 43°34' E 010°19'0 0.0
2014-Oct-16 01:31N 43°34' E 010°19'0 0.0
2014-Oct-16 00:31N 43°34' E 010°19'0 0.0
2014-Oct-15 23:28N 43°34' E 010°19'0 0.0
2014-Oct-15 22:31N 43°34' E 010°19'0 0.0
2014-Oct-15 21:31N 43°34' E 010°19'0 0.0
2014-Oct-15 20:31N 43°34' E 010°19'0 0.0
2014-Oct-15 19:31N 43°34' E 010°19'0 0.0
2014-Oct-15 18:31N 43°34' E 010°19'0 0.0
2014-Oct-15 17:11N 43°34' E 010°19'0 0.0
2014-Oct-15 14:33N 43°34' E 010°19'0 0.0
2014-Oct-15 13:33N 43°34' E 010°19'1 1.2
2014-Oct-15 12:33N 43°34' E 010°18'4 3.8
2014-Oct-15 11:33N 43°30' E 010°17'0 0.1
2014-Oct-15 10:31N 43°30' E 010°17'0 0.0
2014-Oct-15 09:28N 43°30' E 010°17'0 0.0
2014-Oct-15 08:28N 43°30' E 010°17'0 0.0
2014-Oct-15 07:31N 43°30' E 010°17'0 0.1
2014-Oct-15 06:28N 43°30' E 010°17'0 0.0
2014-Oct-15 05:31N 43°30' E 010°17'0 0.0
2014-Oct-15 04:31N 43°30' E 010°17'0 0.0
2014-Oct-15 03:31N 43°30' E 010°17'0 0.0
2014-Oct-15 02:31N 43°30' E 010°17'0 0.0
2014-Oct-15 01:31N 43°30' E 010°17'0 0.0
2014-Oct-15 00:28N 43°30' E 010°17'0 0.0
2014-Oct-14 23:31N 43°30' E 010°17'0 0.0
2014-Oct-14 22:31N 43°30' E 010°17'0 0.0
2014-Oct-14 21:31N 43°30' E 010°17'0 0.1
2014-Oct-14 20:22N 43°30' E 010°17'0 0.1
2014-Oct-14 19:31N 43°30' E 010°17'0 0.0
2014-Oct-14 18:31N 43°30' E 010°17'0 0.0
2014-Oct-14 17:31N 43°30' E 010°17'0 0.0
2014-Oct-14 16:31N 43°30' E 010°17'0 0.0
2014-Oct-14 15:31N 43°30' E 010°17'0 0.0
2014-Oct-14 14:31N 43°30' E 010°17'0 0.0
2014-Oct-14 13:31N 43°30' E 010°17'0 0.0
2014-Oct-14 12:31N 43°30' E 010°17'0 0.0
2014-Oct-14 11:31N 43°30' E 010°17'0 0.0
2014-Oct-14 10:28N 43°30' E 010°17'0 0.0
2014-Oct-14 09:31N 43°30' E 010°17'0 0.0
2014-Oct-14 08:31N 43°30' E 010°17'0 0.0
2014-Oct-14 07:31N 43°30' E 010°17'0 0.4
2014-Oct-14 06:33N 43°30' E 010°17'1312.9
2014-Oct-14 05:33N 43°18' E 010°10'1514.7
2014-Oct-14 04:33N 43°03' E 010°06'3113.4
2014-Oct-14 02:13N 42°33' E 010°16'20214.7
2014-Oct-13 12:32N 40°09' E 013°24'1414.8
2014-Oct-13 11:33N 39°59' E 013°38'1514.8
2014-Oct-13 10:31N 39°48' E 013°52'8914.8
2014-Oct-13 04:28N 38°43' E 015°11'  

Dump ship's entire track history